createdAt,value
2018-11-12T00:01:35.425Z,77.56
2018-11-12T00:04:06.876Z,77.85
2018-11-12T00:06:36.528Z,77.92
2018-11-12T00:09:08.105Z,77.63
2018-11-12T00:11:38.131Z,78.04
2018-11-12T00:14:08.545Z,78.01
2018-11-12T00:16:38.191Z,78.04
2018-11-12T00:19:10.053Z,77.96
2018-11-12T00:21:39.868Z,78.11
2018-11-12T00:24:09.725Z,77.98
2018-11-12T00:26:39.866Z,78.05
2018-11-12T00:29:09.666Z,78.28
2018-11-12T00:31:40.834Z,78.67
2018-11-12T00:34:10.578Z,79.44
2018-11-12T00:36:40.356Z,79.03
2018-11-12T00:39:12.072Z,78.84
2018-11-12T00:41:42.677Z,78.96
2018-11-12T00:44:12.583Z,79.22
2018-11-12T00:46:42.351Z,78.60
2018-11-12T00:49:12.001Z,78.16
2018-11-12T00:51:41.828Z,78.42
2018-11-12T00:54:11.618Z,78.41
2018-11-12T00:56:43.349Z,78.70
2018-11-12T00:59:13.636Z,78.55
2018-11-12T01:01:43.459Z,78.26
2018-11-12T01:04:13.350Z,78.09
2018-11-12T01:06:44.163Z,77.94
2018-11-12T01:09:14.101Z,77.94
2018-11-12T01:11:48.686Z,77.47
2018-11-12T01:14:22.321Z,77.13
2018-11-12T01:16:52.245Z,76.88
2018-11-12T01:19:22.277Z,76.73
2018-11-12T01:21:52.356Z,76.36
2018-11-12T01:24:23.117Z,76.25
2018-11-12T01:26:53.593Z,76.21
2018-11-12T01:29:24.185Z,76.19
2018-11-12T01:31:56.391Z,75.74
2018-11-12T01:34:28.694Z,75.90
2018-11-12T01:36:58.397Z,75.83
2018-11-12T01:39:28.139Z,75.62
2018-11-12T01:41:57.902Z,75.70
2018-11-12T01:44:27.654Z,75.80
2018-11-12T01:46:58.897Z,75.44
2018-11-12T01:49:30.675Z,75.60
2018-11-12T01:52:00.411Z,75.48
2018-11-12T01:54:30.051Z,75.70
2018-11-12T01:56:59.686Z,76.29
2018-11-12T01:59:29.488Z,76.72
2018-11-12T02:01:59.290Z,77.42
2018-11-12T02:04:29.664Z,77.56
2018-11-12T02:06:59.374Z,77.36
2018-11-12T02:09:29.725Z,77.59
2018-11-12T02:11:59.481Z,77.42
2018-11-12T02:14:29.278Z,77.51
2018-11-12T02:16:59.116Z,77.76
2018-11-12T02:19:29.054Z,77.70
2018-11-12T02:21:58.854Z,77.90
2018-11-12T02:24:28.865Z,77.82
2018-11-12T02:26:58.562Z,77.75
2018-11-12T02:29:28.192Z,78.13
2018-11-12T02:31:57.924Z,78.32
2018-11-12T02:34:27.620Z,78.41
2018-11-12T02:36:57.459Z,78.37
2018-11-12T02:39:27.122Z,78.49
2018-11-12T02:41:57.227Z,78.69
2018-11-12T02:44:28.565Z,78.69
2018-11-12T02:46:58.257Z,79.07
2018-11-12T02:49:27.961Z,79.01
2018-11-12T02:51:57.650Z,79.04
2018-11-12T02:54:27.298Z,79.36
2018-11-12T02:56:56.995Z,79.27
2018-11-12T02:59:26.653Z,78.94
2018-11-12T03:01:56.350Z,78.99
2018-11-12T03:04:26.011Z,78.98
2018-11-12T03:06:55.636Z,79.09
2018-11-12T03:09:25.549Z,78.88
2018-11-12T03:11:56.236Z,79.08
2018-11-12T03:14:26.174Z,79.18
2018-11-12T03:16:56.013Z,79.16
2018-11-12T03:19:26.089Z,79.10
2018-11-12T03:21:56.090Z,78.97
2018-11-12T03:24:25.808Z,79.06
2018-11-12T03:26:55.725Z,79.02
2018-11-12T03:29:25.614Z,79.03
2018-11-12T03:31:55.774Z,78.87
2018-11-12T03:34:25.602Z,79.29
2018-11-12T03:36:55.343Z,79.41
2018-11-12T03:39:26.789Z,79.07
2018-11-12T03:41:57.441Z,79.36
2018-11-12T03:44:27.810Z,79.03
2018-11-12T03:46:57.820Z,79.03
2018-11-12T03:49:29.492Z,78.83
2018-11-12T03:52:00.361Z,78.80
2018-11-12T03:54:30.207Z,78.76
2018-11-12T03:57:12.117Z,78.21
2018-11-12T03:59:52.822Z,78.83
2018-11-12T04:02:23.346Z,78.79
2018-11-12T04:04:53.725Z,78.47
2018-11-12T04:07:23.617Z,78.44
2018-11-12T04:09:57.913Z,78.64
2018-11-12T04:12:27.846Z,78.45
2018-11-12T04:14:57.891Z,78.34
2018-11-12T04:17:28.824Z,78.45
2018-11-12T04:20:02.036Z,78.51
2018-11-12T04:22:31.886Z,78.77
2018-11-12T04:25:01.591Z,78.58
2018-11-12T04:27:31.370Z,78.65
2018-11-12T04:30:01.104Z,78.52
2018-11-12T04:32:30.834Z,78.54
2018-11-12T04:35:00.688Z,78.37
2018-11-12T04:37:31.930Z,78.31
2018-11-12T04:40:01.599Z,78.41
2018-11-12T04:42:33.667Z,78.58
2018-11-12T04:45:16.291Z,78.49
2018-11-12T04:47:47.160Z,78.59
2018-11-12T04:50:22.698Z,78.57
2018-11-12T04:52:53.987Z,78.63
2018-11-12T04:55:24.482Z,78.61
2018-11-12T04:57:54.372Z,78.82
2018-11-12T05:00:25.488Z,78.59
2018-11-12T05:02:55.533Z,78.68
2018-11-12T05:05:26.490Z,78.98
2018-11-12T05:10:44.258Z,79.21
2018-11-12T05:13:14.617Z,79.23
2018-11-12T05:15:45.134Z,79.51
2018-11-12T05:18:15.314Z,79.43
2018-11-12T05:23:37.080Z,79.74
2018-11-12T05:26:08.264Z,79.69
2018-11-12T05:28:37.940Z,79.71
2018-11-12T05:31:17.667Z,79.82
2018-11-12T05:33:47.370Z,79.61
2018-11-12T05:36:17.090Z,79.64
2018-11-12T05:38:47.862Z,79.68
2018-11-12T05:41:31.318Z,79.82
2018-11-12T05:44:04.324Z,79.93
2018-11-12T05:46:38.406Z,79.65
2018-11-12T05:49:08.246Z,79.75
2018-11-12T05:51:47.617Z,79.55
2018-11-12T05:54:18.883Z,79.58
2018-11-12T05:57:03.460Z,79.48
2018-11-12T05:59:35.179Z,79.33
2018-11-12T06:02:05.662Z,79.16
2018-11-12T06:04:37.842Z,79.38
2018-11-12T06:07:14.313Z,79.08
2018-11-12T06:09:44.153Z,79.10
2018-11-12T06:12:13.905Z,79.16
2018-11-12T06:14:43.860Z,79.02
2018-11-12T06:17:14.522Z,78.96
2018-11-12T06:19:44.652Z,79.22
2018-11-12T06:22:16.169Z,78.94
2018-11-12T06:24:50.941Z,78.85
2018-11-12T06:27:21.674Z,79.00
2018-11-12T06:30:09.010Z,79.26
2018-11-12T06:32:39.065Z,79.37
2018-11-12T06:35:10.237Z,79.15
2018-11-12T06:37:40.293Z,79.58
2018-11-12T06:40:12.394Z,79.30
2018-11-12T06:42:43.552Z,79.27
2018-11-12T06:45:15.411Z,79.36
2018-11-12T06:47:46.021Z,79.19
2018-11-12T06:50:17.774Z,79.45
2018-11-12T06:52:57.614Z,79.17
2018-11-12T06:55:28.998Z,79.12
2018-11-12T06:57:59.930Z,79.43
2018-11-12T07:00:32.380Z,79.51
2018-11-12T07:03:08.258Z,79.42
2018-11-12T07:05:38.958Z,79.43
2018-11-12T07:08:15.994Z,79.58
2018-11-12T07:10:46.854Z,79.52
2018-11-12T07:13:27.744Z,79.44
2018-11-12T07:16:12.840Z,79.81
2018-11-12T07:19:00.443Z,79.46
2018-11-12T07:21:30.309Z,79.60
2018-11-12T07:24:00.087Z,79.78
2018-11-12T07:26:30.138Z,79.53
2018-11-12T07:29:00.053Z,79.63
2018-11-12T07:31:30.398Z,79.48
2018-11-12T07:34:00.122Z,79.50
2018-11-12T07:36:29.849Z,79.37
2018-11-12T07:39:01.082Z,79.55
2018-11-12T07:41:30.919Z,79.54
2018-11-12T07:44:00.707Z,79.49
2018-11-12T07:46:30.688Z,79.27
2018-11-12T07:49:00.447Z,79.42
2018-11-12T07:51:30.275Z,79.39
2018-11-12T07:54:00.313Z,79.37
2018-11-12T07:56:30.250Z,79.58
2018-11-12T07:58:59.875Z,79.55
2018-11-12T08:01:29.668Z,79.55
2018-11-12T08:03:59.368Z,79.91
2018-11-12T08:06:29.022Z,79.66
2018-11-12T08:08:58.839Z,79.50
2018-11-12T08:11:28.420Z,79.61
2018-11-12T08:13:58.014Z,79.64
2018-11-12T08:16:27.861Z,79.78
2018-11-12T08:18:58.402Z,79.80
2018-11-12T08:21:28.130Z,79.81
2018-11-12T08:23:57.825Z,79.72
2018-11-12T08:26:27.741Z,79.97
2018-11-12T08:28:57.784Z,80.09
2018-11-12T08:31:27.506Z,80.17
2018-11-12T08:33:57.319Z,80.19
2018-11-12T08:36:27.088Z,79.94
2018-11-12T08:38:58.451Z,79.97
2018-11-12T08:41:30.378Z,79.94
2018-11-12T08:44:01.101Z,79.90
2018-11-12T08:46:30.753Z,79.68
2018-11-12T08:49:00.411Z,79.93
2018-11-12T08:51:30.165Z,79.92
2018-11-12T08:54:00.646Z,79.80
2018-11-12T08:56:31.358Z,79.78
2018-11-12T08:59:03.527Z,79.69
2018-11-12T09:01:33.310Z,79.57
2018-11-12T09:04:03.159Z,79.56
2018-11-12T09:06:32.917Z,79.64
2018-11-12T09:09:02.975Z,79.52
2018-11-12T09:11:32.903Z,79.61
2018-11-12T09:14:02.770Z,79.43
2018-11-12T09:16:32.532Z,79.26
2018-11-12T09:19:02.566Z,79.32
2018-11-12T09:21:32.341Z,79.33
2018-11-12T09:24:02.403Z,79.42
2018-11-12T09:26:32.190Z,79.12
2018-11-12T09:29:01.869Z,79.27
2018-11-12T09:31:31.804Z,79.51
2018-11-12T09:34:01.415Z,79.14
2018-11-12T09:36:31.085Z,79.20
2018-11-12T09:39:00.779Z,79.03
2018-11-12T09:41:30.562Z,79.00
2018-11-12T09:44:00.152Z,79.22
2018-11-12T09:46:30.251Z,79.05
2018-11-12T09:48:59.977Z,79.15
2018-11-12T09:51:29.612Z,78.87
2018-11-12T09:53:59.485Z,79.27
2018-11-12T09:56:29.163Z,78.99
2018-11-12T09:59:01.438Z,78.81
2018-11-12T10:01:31.610Z,79.34
2018-11-12T10:04:15.704Z,79.25
2018-11-12T10:06:57.063Z,79.23
2018-11-12T10:09:30.476Z,79.27
2018-11-12T10:12:01.256Z,79.26
2018-11-12T10:14:31.143Z,79.31
2018-11-12T10:16:59.982Z,79.12
2018-11-12T10:19:28.801Z,79.26
2018-11-12T10:22:06.365Z,79.05
2018-11-12T10:27:19.277Z,79.44
2018-11-12T10:29:48.943Z,79.48
2018-11-12T10:32:18.640Z,79.47
2018-11-12T10:34:48.256Z,79.19
2018-11-12T10:37:18.171Z,79.28
2018-11-12T10:39:47.939Z,79.30
2018-11-12T10:42:17.712Z,79.28
2018-11-12T10:44:48.341Z,79.92
2018-11-12T10:47:18.095Z,79.60
2018-11-12T10:49:47.788Z,79.93
2018-11-12T10:52:17.624Z,79.93
2018-11-12T10:54:47.425Z,79.83
2018-11-12T10:57:19.467Z,79.89
2018-11-12T10:59:49.240Z,80.32
2018-11-12T11:02:24.107Z,80.24
2018-11-12T11:04:53.857Z,79.82
2018-11-12T11:07:23.574Z,80.07
2018-11-12T11:09:53.140Z,80.19
2018-11-12T11:12:22.964Z,80.28
2018-11-12T11:14:52.760Z,80.23
2018-11-12T11:17:23.788Z,80.33
2018-11-12T11:19:53.966Z,80.24
2018-11-12T11:22:23.689Z,80.14
2018-11-12T11:24:54.325Z,80.03
2018-11-12T11:27:24.762Z,79.88
2018-11-12T11:29:54.405Z,79.85
2018-11-12T11:32:25.223Z,80.34
2018-11-12T11:34:55.301Z,80.32
2018-11-12T11:37:25.925Z,79.83
2018-11-12T11:39:56.522Z,80.06
2018-11-12T11:42:26.149Z,80.20
2018-11-12T11:44:55.782Z,80.00
2018-11-12T11:47:25.465Z,80.10
2018-11-12T11:49:55.051Z,79.91
2018-11-12T11:52:24.704Z,80.09
2018-11-12T11:54:54.420Z,79.95
2018-11-12T11:57:24.163Z,80.31
2018-11-12T11:59:53.862Z,79.75
2018-11-12T12:02:23.798Z,79.97
2018-11-12T12:05:00.243Z,80.18
2018-11-12T12:07:30.527Z,79.97
2018-11-12T12:10:00.260Z,79.95
2018-11-12T12:12:34.505Z,80.59
2018-11-12T12:15:05.029Z,80.22
2018-11-12T12:17:34.873Z,80.34
2018-11-12T12:20:07.126Z,79.75
2018-11-12T12:22:36.782Z,80.55
2018-11-12T12:25:09.047Z,80.15
2018-11-12T12:27:41.571Z,80.12
2018-11-12T12:30:13.722Z,80.35
2018-11-12T12:32:44.484Z,80.25
2018-11-12T12:35:14.752Z,79.98
2018-11-12T12:37:45.206Z,79.92
2018-11-12T12:40:17.874Z,79.80
2018-11-12T12:42:47.476Z,79.97
2018-11-12T12:45:18.484Z,79.81
2018-11-12T12:47:48.714Z,80.07
2018-11-12T12:50:19.138Z,79.69
2018-11-12T12:52:48.931Z,79.91
2018-11-12T12:55:20.772Z,80.19
2018-11-12T12:57:50.627Z,80.40
2018-11-12T13:00:24.631Z,79.90
2018-11-12T13:02:54.320Z,80.16
2018-11-12T13:05:25.414Z,79.87
2018-11-12T13:07:55.720Z,79.97
2018-11-12T13:10:25.768Z,80.58
2018-11-12T13:12:55.404Z,79.96
2018-11-12T13:15:25.078Z,79.74
2018-11-12T13:17:54.880Z,79.70
2018-11-12T13:20:26.225Z,79.58
2018-11-12T13:22:59.697Z,79.56
2018-11-12T13:25:29.413Z,79.42
2018-11-12T13:27:59.165Z,79.30
2018-11-12T13:30:28.818Z,79.16
2018-11-12T13:32:59.642Z,79.13
2018-11-12T13:35:29.807Z,78.83
2018-11-12T13:37:59.453Z,78.73
2018-11-12T13:40:30.049Z,78.06
2018-11-12T13:43:00.648Z,78.33
2018-11-12T13:45:30.385Z,78.40
2018-11-12T13:48:00.614Z,78.86
2018-11-12T13:50:31.313Z,78.51
2018-11-12T13:53:02.348Z,78.79
2018-11-12T13:55:32.065Z,78.38
2018-11-12T13:58:01.829Z,78.70
2018-11-12T14:00:32.027Z,78.50
2018-11-12T14:03:01.690Z,78.50
2018-11-12T14:05:31.453Z,78.34
2018-11-12T14:08:01.839Z,78.46
2018-11-12T14:10:31.889Z,78.13
2018-11-12T14:13:01.781Z,77.96
2018-11-12T14:15:31.499Z,78.22
2018-11-12T14:18:01.279Z,78.49
2018-11-12T14:20:31.190Z,78.10
2018-11-12T14:23:00.923Z,78.26
2018-11-12T14:25:30.647Z,78.25
2018-11-12T14:28:00.419Z,78.25
2018-11-12T14:30:31.091Z,78.36
2018-11-12T14:33:00.806Z,78.21
2018-11-12T14:35:30.770Z,78.28
2018-11-12T14:38:00.728Z,78.14
2018-11-12T14:40:30.509Z,78.18
2018-11-12T14:43:00.200Z,78.33
2018-11-12T14:45:29.821Z,78.21
2018-11-12T14:47:59.394Z,78.22
2018-11-12T14:50:29.090Z,77.92
2018-11-12T14:52:58.713Z,78.10
2018-11-12T14:55:28.381Z,78.07
2018-11-12T14:57:58.981Z,77.55
2018-11-12T15:00:28.686Z,77.41
2018-11-12T15:02:59.899Z,77.58
2018-11-12T15:05:29.848Z,77.37
2018-11-12T15:07:59.634Z,77.28
2018-11-12T15:10:29.289Z,77.15
2018-11-12T15:12:58.921Z,77.17
2018-11-12T15:15:28.710Z,77.16
2018-11-12T15:17:58.489Z,77.33
2018-11-12T15:20:28.236Z,77.18
2018-11-12T15:22:58.058Z,77.12
2018-11-12T15:25:28.076Z,77.11
2018-11-12T15:27:57.743Z,76.97
2018-11-12T15:30:27.668Z,77.10
2018-11-12T15:32:57.541Z,76.84
2018-11-12T15:35:27.224Z,77.13
2018-11-12T15:37:56.936Z,76.97
2018-11-12T15:40:26.657Z,76.78
2018-11-12T15:42:56.323Z,77.04
2018-11-12T15:45:26.409Z,76.74
2018-11-12T15:47:56.284Z,76.75
2018-11-12T15:50:32.712Z,76.59
2018-11-12T15:53:02.419Z,76.90
2018-11-12T15:55:32.250Z,76.84
2018-11-12T15:58:02.112Z,76.61
2018-11-12T16:00:32.172Z,76.57
2018-11-12T16:03:01.946Z,76.82
2018-11-12T16:05:31.697Z,76.48
2018-11-12T16:08:02.390Z,76.76
2018-11-12T16:10:32.143Z,76.61
2018-11-12T16:13:01.843Z,76.56
2018-11-12T16:15:31.476Z,76.60
2018-11-12T16:18:01.171Z,76.47
2018-11-12T16:20:31.015Z,76.40
2018-11-12T16:23:01.517Z,76.21
2018-11-12T16:25:31.199Z,76.17
2018-11-12T16:28:01.023Z,76.16
2018-11-12T16:30:30.717Z,76.00
2018-11-12T16:33:00.455Z,75.92
2018-11-12T16:35:30.134Z,75.72
2018-11-12T16:37:59.852Z,75.68
2018-11-12T16:40:29.612Z,75.45
2018-11-12T16:42:59.275Z,75.68
2018-11-12T16:45:28.917Z,75.56
2018-11-12T16:47:58.644Z,75.64
2018-11-12T16:50:28.376Z,75.19
2018-11-12T16:52:58.104Z,75.46
2018-11-12T16:55:27.778Z,75.75
2018-11-12T16:57:57.478Z,75.36
2018-11-12T17:00:27.477Z,75.90
2018-11-12T17:02:57.173Z,75.83
2018-11-12T17:05:27.867Z,75.62
2018-11-12T17:07:57.996Z,75.62
2018-11-12T17:10:28.097Z,75.77
2018-11-12T17:12:57.705Z,76.09
2018-11-12T17:15:27.365Z,76.73
2018-11-12T17:17:56.974Z,76.93
2018-11-12T17:20:26.587Z,77.06
2018-11-12T17:22:56.215Z,77.00
2018-11-12T17:25:25.814Z,77.35
2018-11-12T17:27:55.528Z,77.13
2018-11-12T17:30:25.140Z,76.77
2018-11-12T17:32:55.330Z,76.76
2018-11-12T17:35:25.801Z,76.62
2018-11-12T17:37:55.462Z,76.64
2018-11-12T17:40:26.401Z,76.45
2018-11-12T17:42:56.733Z,76.59
2018-11-12T17:45:27.671Z,76.44
2018-11-12T17:47:58.340Z,76.16
2018-11-12T17:50:28.015Z,76.29
2018-11-12T17:52:57.600Z,76.08
2018-11-12T17:55:27.373Z,76.33
2018-11-12T17:57:57.020Z,76.38
2018-11-12T18:00:30.325Z,76.57
2018-11-12T18:02:59.939Z,76.19
2018-11-12T18:05:29.602Z,76.40
2018-11-12T18:07:59.362Z,76.58
2018-11-12T18:10:29.480Z,76.26
2018-11-12T18:12:59.365Z,76.56
2018-11-12T18:15:29.082Z,76.65
2018-11-12T18:17:58.712Z,76.66
2018-11-12T18:20:29.022Z,76.71
2018-11-12T18:22:58.817Z,76.97
2018-11-12T18:25:28.598Z,76.94
2018-11-12T18:27:58.290Z,76.40
2018-11-12T18:30:29.603Z,76.43
2018-11-12T18:32:59.602Z,76.18
2018-11-12T18:35:29.299Z,76.69
2018-11-12T18:37:59.037Z,76.52
2018-11-12T18:40:29.689Z,76.81
2018-11-12T18:42:59.448Z,76.95
2018-11-12T18:45:29.419Z,77.02
2018-11-12T18:47:59.690Z,76.36
2018-11-12T18:50:30.833Z,76.59
2018-11-12T18:53:00.484Z,77.39
2018-11-12T18:55:30.228Z,77.19
2018-11-12T18:58:00.063Z,77.51
2018-11-12T19:00:29.803Z,78.10
2018-11-12T19:02:59.380Z,77.99
2018-11-12T19:05:29.843Z,77.90
2018-11-12T19:08:01.060Z,78.26
2018-11-12T19:10:32.296Z,78.07
2018-11-12T19:13:02.006Z,77.84
2018-11-12T19:15:35.166Z,77.77
2018-11-12T19:18:09.690Z,78.17
2018-11-12T19:20:39.305Z,77.93
2018-11-12T19:23:08.974Z,78.54
2018-11-12T19:25:38.660Z,78.55
2018-11-12T19:28:08.436Z,78.84
2018-11-12T19:30:38.076Z,78.78
2018-11-12T19:33:07.793Z,79.08
2018-11-12T19:35:37.491Z,78.80
2018-11-12T19:38:07.345Z,78.76
2018-11-12T19:40:36.985Z,78.92
2018-11-12T19:43:06.781Z,79.01
2018-11-12T19:45:36.590Z,78.87
2018-11-12T19:48:06.425Z,78.94
2018-11-12T19:50:36.025Z,78.66
2018-11-12T19:53:05.908Z,78.65
2018-11-12T19:55:35.570Z,78.54
2018-11-12T19:58:06.797Z,78.63
2018-11-12T20:00:36.518Z,78.36
2018-11-12T20:03:06.170Z,78.21
2018-11-12T20:05:35.826Z,78.48
2018-11-12T20:08:06.036Z,78.29
2018-11-12T20:10:35.743Z,78.00
2018-11-12T20:13:06.501Z,77.89
2018-11-12T20:15:36.281Z,77.82
2018-11-12T20:18:06.156Z,77.65
2018-11-12T20:20:35.970Z,77.78
2018-11-12T20:23:05.890Z,77.52
2018-11-12T20:25:35.716Z,77.60
2018-11-12T20:28:05.751Z,78.00
2018-11-12T20:30:37.033Z,78.34
2018-11-12T20:33:06.989Z,78.58
2018-11-12T20:35:36.769Z,78.52
2018-11-12T20:38:06.513Z,78.67
2018-11-12T20:40:36.237Z,78.27
2018-11-12T20:43:06.133Z,78.30
2018-11-12T20:45:35.905Z,78.32
2018-11-12T20:48:06.112Z,78.02
2018-11-12T20:50:53.176Z,78.27
2018-11-12T20:53:25.021Z,78.28
2018-11-12T20:55:56.181Z,78.13
2018-11-12T20:58:26.483Z,78.11
2018-11-12T21:00:56.118Z,77.95
2018-11-12T21:03:25.818Z,77.97
2018-11-12T21:05:58.948Z,78.37
2018-11-12T21:08:28.734Z,78.44
2018-11-12T21:10:58.486Z,78.83
2018-11-12T21:13:28.384Z,78.82
2018-11-12T21:15:58.036Z,79.75
2018-11-12T21:18:27.702Z,79.61
2018-11-12T21:20:57.386Z,79.37
2018-11-12T21:23:27.259Z,79.58
2018-11-12T21:25:56.963Z,79.58
2018-11-12T21:28:28.940Z,79.63
2018-11-12T21:30:59.207Z,79.77
2018-11-12T21:33:28.910Z,79.45
2018-11-12T21:35:58.924Z,79.07
2018-11-12T21:38:29.126Z,79.37
2018-11-12T21:40:58.862Z,79.46
2018-11-12T21:43:28.792Z,79.04
2018-11-12T21:45:58.497Z,79.12
2018-11-12T21:48:28.283Z,79.31
2018-11-12T21:50:58.088Z,79.41
2018-11-12T21:53:27.888Z,79.08
2018-11-12T21:55:57.760Z,79.05
2018-11-12T21:58:27.474Z,79.35
2018-11-12T22:00:57.166Z,79.36
2018-11-12T22:03:26.838Z,79.53
2018-11-12T22:05:56.538Z,79.24
2018-11-12T22:08:26.315Z,79.31
2018-11-12T22:10:55.964Z,79.26
2018-11-12T22:13:25.679Z,79.10
2018-11-12T22:15:59.492Z,79.03
2018-11-12T22:18:34.493Z,79.24
2018-11-12T22:21:08.803Z,79.37
2018-11-12T22:23:38.754Z,79.81
2018-11-12T22:26:09.722Z,79.60
2018-11-12T22:28:39.471Z,79.57
2018-11-12T22:31:09.107Z,79.67
2018-11-12T22:33:38.680Z,80.22
2018-11-12T22:36:08.381Z,79.88
2018-11-12T22:38:37.991Z,80.07
2018-11-12T22:41:07.785Z,80.00
2018-11-12T22:43:37.426Z,80.02
2018-11-12T22:46:08.099Z,80.24
2018-11-12T22:48:37.828Z,80.06
2018-11-12T22:51:07.466Z,80.38
2018-11-12T22:53:37.146Z,80.35
2018-11-12T22:56:07.265Z,80.15
2018-11-12T22:58:36.873Z,80.19
2018-11-12T23:01:06.761Z,80.14
2018-11-12T23:03:36.414Z,79.58
2018-11-12T23:06:11.840Z,79.75
2018-11-12T23:08:42.276Z,79.53
2018-11-12T23:11:14.479Z,79.51
2018-11-12T23:13:44.195Z,79.51
2018-11-12T23:16:13.853Z,79.96
2018-11-12T23:18:43.574Z,79.78
2018-11-12T23:21:14.123Z,79.80
2018-11-12T23:23:43.992Z,79.82
2018-11-12T23:26:13.810Z,79.51
2018-11-12T23:28:44.051Z,79.40
2018-11-12T23:31:16.854Z,79.42
2018-11-12T23:33:46.564Z,79.37
2018-11-12T23:36:16.408Z,79.66
2018-11-12T23:38:46.101Z,79.84
2018-11-12T23:41:18.756Z,79.74
2018-11-12T23:43:48.566Z,79.66
2018-11-12T23:46:18.325Z,79.78
2018-11-12T23:48:48.077Z,79.73
2018-11-12T23:51:17.750Z,79.71
2018-11-12T23:53:47.442Z,79.64
2018-11-12T23:56:17.180Z,79.67
2018-11-12T23:58:46.825Z,79.80
